West Linton, Indiana
Current Conditions -  °F | °C
As of 7:15 AM on Friday 28 Nov 2014 (Local Time) from KDCY Reporting Station
Broken Clouds Broken Clouds  
Wind Chill: -7°   Ceiling: 11000
Heat Index: -4°   Visibility: 10mi
Dew Point: -6°   Wind: 5mph
Humidity: 89%   Direction: 160°SSE
Pressure: 30.4"   Gusts: NA
Location:  39.0608°N, 87.1852°W
Report Text: KDCY 281215Z AUTO 16004KT 10SM SCT075 BKN110 M04/M06 A3040 RMK AO2 T10421057
Loading
Personal Weather Stations






























Interactive Weather Map New forecast layout! Learn more

10-Day Weather Forecast

Advertisements
Track Severe Weather on mobile